sensor_id;sensor_type;location;lat;lon;timestamp;temperature;humidity
74513;DHT22;62992;52.052;8.550;2023-04-03T00:01:57;3.00;99.90
74513;DHT22;62992;52.052;8.550;2023-04-03T00:04:41;2.90;99.90
74513;DHT22;62992;52.052;8.550;2023-04-03T00:07:25;2.90;99.90
74513;DHT22;62992;52.052;8.550;2023-04-03T00:10:10;2.80;99.90
74513;DHT22;62992;52.052;8.550;2023-04-03T00:12:54;2.80;99.90
74513;DHT22;62992;52.052;8.550;2023-04-03T00:15:38;2.80;99.90
74513;DHT22;62992;52.052;8.550;2023-04-03T00:18:23;2.70;99.90
74513;DHT22;62992;52.052;8.550;2023-04-03T00:21:09;2.70;99.90
74513;DHT22;62992;52.052;8.550;2023-04-03T00:23:53;2.70;99.90
74513;DHT22;62992;52.052;8.550;2023-04-03T00:26:37;2.60;99.90
74513;DHT22;62992;52.052;8.550;2023-04-03T00:29:21;2.50;99.90
74513;DHT22;62992;52.052;8.550;2023-04-03T00:32:05;2.50;99.90
74513;DHT22;62992;52.052;8.550;2023-04-03T00:34:49;2.50;99.90
74513;DHT22;62992;52.052;8.550;2023-04-03T00:37:34;2.50;99.90
74513;DHT22;62992;52.052;8.550;2023-04-03T00:40:18;2.40;99.90
74513;DHT22;62992;52.052;8.550;2023-04-03T00:43:15;2.40;99.90
74513;DHT22;62992;52.052;8.550;2023-04-03T00:46:00;2.40;99.90
74513;DHT22;62992;52.052;8.550;2023-04-03T00:48:46;2.30;99.90
74513;DHT22;62992;52.052;8.550;2023-04-03T00:51:31;2.20;99.90
74513;DHT22;62992;52.052;8.550;2023-04-03T00:54:15;2.20;99.90
74513;DHT22;62992;52.052;8.550;2023-04-03T00:57:00;2.20;99.90
74513;DHT22;62992;52.052;8.550;2023-04-03T00:59:46;2.20;99.90
74513;DHT22;62992;52.052;8.550;2023-04-03T01:02:32;2.20;99.90
74513;DHT22;62992;52.052;8.550;2023-04-03T01:05:17;2.10;99.90
74513;DHT22;62992;52.052;8.550;2023-04-03T01:08:02;2.10;99.90
74513;DHT22;62992;52.052;8.550;2023-04-03T01:10:46;2.00;99.90
74513;DHT22;62992;52.052;8.550;2023-04-03T01:13:32;2.00;99.90
74513;DHT22;62992;52.052;8.550;2023-04-03T01:16:16;1.90;99.90
74513;DHT22;62992;52.052;8.550;2023-04-03T01:19:03;2.00;99.90
74513;DHT22;62992;52.052;8.550;2023-04-03T01:22:18;2.00;99.90
74513;DHT22;62992;52.052;8.550;2023-04-03T01:25:03;2.00;99.90
74513;DHT22;62992;52.052;8.550;2023-04-03T01:27:47;1.90;99.90
74513;DHT22;62992;52.052;8.550;2023-04-03T01:30:35;1.80;99.90
74513;DHT22;62992;52.052;8.550;2023-04-03T01:33:21;1.80;99.90
74513;DHT22;62992;52.052;8.550;2023-04-03T01:36:05;1.80;99.90
74513;DHT22;62992;52.052;8.550;2023-04-03T01:38:51;1.80;99.90
74513;DHT22;62992;52.052;8.550;2023-04-03T01:41:35;1.80;99.90
74513;DHT22;62992;52.052;8.550;2023-04-03T01:44:20;1.70;99.90
74513;DHT22;62992;52.052;8.550;2023-04-03T01:47:06;1.70;99.90
74513;DHT22;62992;52.052;8.550;2023-04-03T01:49:51;1.50;99.90
74513;DHT22;62992;52.052;8.550;2023-04-03T01:52:35;1.50;99.90
74513;DHT22;62992;52.052;8.550;2023-04-03T01:55:19;1.40;99.90
74513;DHT22;62992;52.052;8.550;2023-04-03T01:58:03;1.40;99.90
74513;DHT22;62992;52.052;8.550;2023-04-03T02:00:48;1.40;99.90
74513;DHT22;62992;52.052;8.550;2023-04-03T02:03:32;1.30;99.90
74513;DHT22;62992;52.052;8.550;2023-04-03T02:06:16;1.40;99.90
74513;DHT22;62992;52.052;8.550;2023-04-03T02:09:00;1.50;99.90
74513;DHT22;62992;52.052;8.550;2023-04-03T02:11:44;1.50;99.90
74513;DHT22;62992;52.052;8.550;2023-04-03T02:14:28;1.50;99.90
74513;DHT22;62992;52.052;8.550;2023-04-03T02:17:12;1.50;99.90
74513;DHT22;62992;52.052;8.550;2023-04-03T02:19:56;1.50;99.90
74513;DHT22;62992;52.052;8.550;2023-04-03T02:22:40;1.50;99.90
74513;DHT22;62992;52.052;8.550;2023-04-03T02:25:24;1.40;99.90
74513;DHT22;62992;52.052;8.550;2023-04-03T02:28:08;1.50;99.90
74513;DHT22;62992;52.052;8.550;2023-04-03T02:30:52;1.40;99.90
74513;DHT22;62992;52.052;8.550;2023-04-03T02:33:36;1.40;99.90
74513;DHT22;62992;52.052;8.550;2023-04-03T02:36:21;1.30;99.90
74513;DHT22;62992;52.052;8.550;2023-04-03T02:39:05;1.40;99.90
74513;DHT22;62992;52.052;8.550;2023-04-03T02:41:49;1.30;99.90
74513;DHT22;62992;52.052;8.550;2023-04-03T02:44:33;1.30;99.90
74513;DHT22;62992;52.052;8.550;2023-04-03T02:47:17;1.20;99.90
74513;DHT22;62992;52.052;8.550;2023-04-03T02:50:02;1.20;99.90
74513;DHT22;62992;52.052;8.550;2023-04-03T02:52:46;1.20;99.90
74513;DHT22;62992;52.052;8.550;2023-04-03T02:55:30;1.20;99.90
74513;DHT22;62992;52.052;8.550;2023-04-03T02:58:14;1.10;99.90
74513;DHT22;62992;52.052;8.550;2023-04-03T03:00:58;1.10;99.90
74513;DHT22;62992;52.052;8.550;2023-04-03T03:03:42;1.10;99.90
74513;DHT22;62992;52.052;8.550;2023-04-03T03:06:26;1.10;99.90
74513;DHT22;62992;52.052;8.550;2023-04-03T03:09:10;1.00;99.90
74513;DHT22;62992;52.052;8.550;2023-04-03T03:11:54;1.00;99.90
74513;DHT22;62992;52.052;8.550;2023-04-03T03:14:38;1.00;99.90
74513;DHT22;62992;52.052;8.550;2023-04-03T03:17:23;0.90;99.90
74513;DHT22;62992;52.052;8.550;2023-04-03T03:20:08;0.90;99.90
74513;DHT22;62992;52.052;8.550;2023-04-03T03:22:52;0.80;99.90
74513;DHT22;62992;52.052;8.550;2023-04-03T03:25:40;0.80;99.90
74513;DHT22;62992;52.052;8.550;2023-04-03T03:28:24;0.80;99.90
74513;DHT22;62992;52.052;8.550;2023-04-03T03:31:09;0.80;99.90
74513;DHT22;62992;52.052;8.550;2023-04-03T03:33:54;0.80;99.90
74513;DHT22;62992;52.052;8.550;2023-04-03T03:36:38;0.70;99.90
74513;DHT22;62992;52.052;8.550;2023-04-03T03:39:22;0.80;99.90
74513;DHT22;62992;52.052;8.550;2023-04-03T03:42:06;0.80;99.90
74513;DHT22;62992;52.052;8.550;2023-04-03T03:44:50;0.80;99.90
74513;DHT22;62992;52.052;8.550;2023-04-03T03:47:35;0.80;99.90
74513;DHT22;62992;52.052;8.550;2023-04-03T03:50:19;0.70;99.90
74513;DHT22;62992;52.052;8.550;2023-04-03T03:53:04;0.70;99.90
74513;DHT22;62992;52.052;8.550;2023-04-03T03:55:49;0.70;99.90
74513;DHT22;62992;52.052;8.550;2023-04-03T03:58:33;0.70;99.90
74513;DHT22;62992;52.052;8.550;2023-04-03T04:01:17;0.70;99.90
74513;DHT22;62992;52.052;8.550;2023-04-03T04:04:01;0.60;99.90
74513;DHT22;62992;52.052;8.550;2023-04-03T04:06:45;0.60;99.90
74513;DHT22;62992;52.052;8.550;2023-04-03T04:09:30;0.60;99.90
74513;DHT22;62992;52.052;8.550;2023-04-03T04:12:14;0.60;99.90
74513;DHT22;62992;52.052;8.550;2023-04-03T04:14:59;0.60;99.90
74513;DHT22;62992;52.052;8.550;2023-04-03T04:17:43;0.60;99.90
74513;DHT22;62992;52.052;8.550;2023-04-03T04:20:27;0.50;99.90
74513;DHT22;62992;52.052;8.550;2023-04-03T04:23:11;0.50;99.90
74513;DHT22;62992;52.052;8.550;2023-04-03T04:25:55;0.50;99.90
74513;DHT22;62992;52.052;8.550;2023-04-03T04:28:39;0.40;99.90
74513;DHT22;62992;52.052;8.550;2023-04-03T04:31:24;0.40;99.90
74513;DHT22;62992;52.052;8.550;2023-04-03T04:34:08;0.40;99.90
74513;DHT22;62992;52.052;8.550;2023-04-03T04:36:52;0.40;99.90
74513;DHT22;62992;52.052;8.550;2023-04-03T04:39:36;0.40;99.90
74513;DHT22;62992;52.052;8.550;2023-04-03T04:42:20;0.30;99.90
74513;DHT22;62992;52.052;8.550;2023-04-03T04:45:04;0.30;99.90
74513;DHT22;62992;52.052;8.550;2023-04-03T04:47:49;0.30;99.90
74513;DHT22;62992;52.052;8.550;2023-04-03T04:50:35;0.30;99.90
74513;DHT22;62992;52.052;8.550;2023-04-03T04:53:19;0.30;99.90
74513;DHT22;62992;52.052;8.550;2023-04-03T04:56:04;0.30;99.90
74513;DHT22;62992;52.052;8.550;2023-04-03T04:58:48;0.30;99.90
74513;DHT22;62992;52.052;8.550;2023-04-03T05:01:32;0.30;99.90
74513;DHT22;62992;52.052;8.550;2023-04-03T05:04:17;0.30;99.90
74513;DHT22;62992;52.052;8.550;2023-04-03T05:07:01;0.20;99.90
74513;DHT22;62992;52.052;8.550;2023-04-03T05:09:45;0.30;99.90
74513;DHT22;62992;52.052;8.550;2023-04-03T05:12:29;0.30;99.90
74513;DHT22;62992;52.052;8.550;2023-04-03T05:15:14;0.20;99.90
74513;DHT22;62992;52.052;8.550;2023-04-03T05:17:58;0.20;99.90
74513;DHT22;62992;52.052;8.550;2023-04-03T05:20:42;0.30;99.90
74513;DHT22;62992;52.052;8.550;2023-04-03T05:23:27;0.30;99.90
74513;DHT22;62992;52.052;8.550;2023-04-03T05:26:11;0.30;99.90
74513;DHT22;62992;52.052;8.550;2023-04-03T05:28:55;0.30;99.90
74513;DHT22;62992;52.052;8.550;2023-04-03T05:31:40;0.30;99.90
74513;DHT22;62992;52.052;8.550;2023-04-03T05:34:24;0.40;99.90
74513;DHT22;62992;52.052;8.550;2023-04-03T05:37:08;0.40;99.90
74513;DHT22;62992;52.052;8.550;2023-04-03T05:39:51;0.40;99.90
74513;DHT22;62992;52.052;8.550;2023-04-03T05:42:36;0.50;99.90
74513;DHT22;62992;52.052;8.550;2023-04-03T05:45:20;0.50;99.90
74513;DHT22;62992;52.052;8.550;2023-04-03T05:48:04;0.50;99.90
74513;DHT22;62992;52.052;8.550;2023-04-03T05:50:48;0.50;99.90
74513;DHT22;62992;52.052;8.550;2023-04-03T05:53:35;0.50;99.90
74513;DHT22;62992;52.052;8.550;2023-04-03T05:56:21;0.60;99.90
74513;DHT22;62992;52.052;8.550;2023-04-03T05:59:05;0.60;99.90
74513;DHT22;62992;52.052;8.550;2023-04-03T06:01:50;0.60;99.90
74513;DHT22;62992;52.052;8.550;2023-04-03T06:04:34;0.70;99.90
74513;DHT22;62992;52.052;8.550;2023-04-03T06:07:20;0.70;99.90
74513;DHT22;62992;52.052;8.550;2023-04-03T06:10:06;0.70;99.90
74513;DHT22;62992;52.052;8.550;2023-04-03T06:12:51;0.80;99.90
74513;DHT22;62992;52.052;8.550;2023-04-03T06:15:35;0.80;99.90
74513;DHT22;62992;52.052;8.550;2023-04-03T06:18:19;0.90;99.90
74513;DHT22;62992;52.052;8.550;2023-04-03T06:21:03;0.90;99.90
74513;DHT22;62992;52.052;8.550;2023-04-03T06:23:48;1.00;99.90
74513;DHT22;62992;52.052;8.550;2023-04-03T06:26:32;1.00;99.90
74513;DHT22;62992;52.052;8.550;2023-04-03T06:29:21;1.10;99.90
74513;DHT22;62992;52.052;8.550;2023-04-03T06:32:06;1.20;99.90
74513;DHT22;62992;52.052;8.550;2023-04-03T06:34:49;1.30;99.90
74513;DHT22;62992;52.052;8.550;2023-04-03T06:37:34;1.30;99.90
74513;DHT22;62992;52.052;8.550;2023-04-03T06:40:22;1.30;99.90
74513;DHT22;62992;52.052;8.550;2023-04-03T06:43:07;1.30;99.90
74513;DHT22;62992;52.052;8.550;2023-04-03T06:45:51;1.40;99.90
74513;DHT22;62992;52.052;8.550;2023-04-03T06:48:35;1.50;99.90
74513;DHT22;62992;52.052;8.550;2023-04-03T06:51:24;1.50;99.90
74513;DHT22;62992;52.052;8.550;2023-04-03T06:54:09;1.60;99.90
74513;DHT22;62992;52.052;8.550;2023-04-03T06:56:54;1.60;99.90
74513;DHT22;62992;52.052;8.550;2023-04-03T06:59:37;1.70;99.90
74513;DHT22;62992;52.052;8.550;2023-04-03T07:02:21;1.80;99.90
74513;DHT22;62992;52.052;8.550;2023-04-03T07:05:06;2.00;99.90
74513;DHT22;62992;52.052;8.550;2023-04-03T07:07:51;2.20;99.90
74513;DHT22;62992;52.052;8.550;2023-04-03T07:10:35;2.30;99.90
74513;DHT22;62992;52.052;8.550;2023-04-03T07:13:21;2.70;99.90
74513;DHT22;62992;52.052;8.550;2023-04-03T07:16:06;6.60;99.90
74513;DHT22;62992;52.052;8.550;2023-04-03T07:18:50;9.60;99.90
74513;DHT22;62992;52.052;8.550;2023-04-03T07:21:34;11.20;96.10
74513;DHT22;62992;52.052;8.550;2023-04-03T07:24:19;12.70;92.90
74513;DHT22;62992;52.052;8.550;2023-04-03T07:27:03;12.60;91.80
74513;DHT22;62992;52.052;8.550;2023-04-03T07:29:47;14.60;88.80
74513;DHT22;62992;52.052;8.550;2023-04-03T07:32:32;15.20;83.80
74513;DHT22;62992;52.052;8.550;2023-04-03T07:35:16;15.10;83.30
74513;DHT22;62992;52.052;8.550;2023-04-03T07:38:01;14.40;82.40
74513;DHT22;62992;52.052;8.550;2023-04-03T07:40:47;14.80;79.80
74513;DHT22;62992;52.052;8.550;2023-04-03T07:43:31;16.80;76.50
74513;DHT22;62992;52.052;8.550;2023-04-03T07:46:17;15.50;75.40
74513;DHT22;62992;52.052;8.550;2023-04-03T07:49:01;16.20;74.60
74513;DHT22;62992;52.052;8.550;2023-04-03T07:51:46;15.10;73.50
74513;DHT22;62992;52.052;8.550;2023-04-03T07:54:30;16.00;76.50
74513;DHT22;62992;52.052;8.550;2023-04-03T07:57:14;16.00;73.60
74513;DHT22;62992;52.052;8.550;2023-04-03T07:59:59;16.20;72.60
74513;DHT22;62992;52.052;8.550;2023-04-03T08:02:44;16.30;74.60
74513;DHT22;62992;52.052;8.550;2023-04-03T08:05:28;14.80;72.90
74513;DHT22;62992;52.052;8.550;2023-04-03T08:08:17;14.20;75.00
74513;DHT22;62992;52.052;8.550;2023-04-03T08:11:02;14.80;73.90
74513;DHT22;62992;52.052;8.550;2023-04-03T08:13:46;15.70;72.80
74513;DHT22;62992;52.052;8.550;2023-04-03T08:16:31;14.40;74.20
74513;DHT22;62992;52.052;8.550;2023-04-03T08:19:16;13.60;74.60
74513;DHT22;62992;52.052;8.550;2023-04-03T08:22:02;14.90;75.30
74513;DHT22;62992;52.052;8.550;2023-04-03T08:24:47;15.10;74.30
74513;DHT22;62992;52.052;8.550;2023-04-03T08:27:31;15.70;73.20
74513;DHT22;62992;52.052;8.550;2023-04-03T08:30:15;15.30;74.60
74513;DHT22;62992;52.052;8.550;2023-04-03T08:33:02;14.00;76.30
74513;DHT22;62992;52.052;8.550;2023-04-03T08:35:47;14.30;76.30
74513;DHT22;62992;52.052;8.550;2023-04-03T08:38:31;12.40;79.00
74513;DHT22;62992;52.052;8.550;2023-04-03T08:47:24;12.30;81.30
74513;DHT22;62992;52.052;8.550;2023-04-03T08:50:18;11.90;81.00
74513;DHT22;62992;52.052;8.550;2023-04-03T08:53:03;11.90;79.60
74513;DHT22;62992;52.052;8.550;2023-04-03T08:55:51;12.70;79.40
74513;DHT22;62992;52.052;8.550;2023-04-03T09:01:34;11.60;82.60
74513;DHT22;62992;52.052;8.550;2023-04-03T09:04:19;11.80;81.80
74513;DHT22;62992;52.052;8.550;2023-04-03T09:07:19;11.70;81.90
74513;DHT22;62992;52.052;8.550;2023-04-03T09:10:07;11.70;81.30
74513;DHT22;62992;52.052;8.550;2023-04-03T09:13:03;11.30;83.80
74513;DHT22;62992;52.052;8.550;2023-04-03T09:15:49;11.80;82.30
74513;DHT22;62992;52.052;8.550;2023-04-03T09:18:39;10.90;84.00
74513;DHT22;62992;52.052;8.550;2023-04-03T09:21:38;12.00;83.60
74513;DHT22;62992;52.052;8.550;2023-04-03T09:24:23;9.90;84.40
74513;DHT22;62992;52.052;8.550;2023-04-03T09:27:11;9.70;86.50
74513;DHT22;62992;52.052;8.550;2023-04-03T09:29:57;11.40;82.60
74513;DHT22;62992;52.052;8.550;2023-04-03T09:32:44;11.30;83.10
74513;DHT22;62992;52.052;8.550;2023-04-03T09:35:32;11.10;81.00
74513;DHT22;62992;52.052;8.550;2023-04-03T09:38:19;10.20;83.40
74513;DHT22;62992;52.052;8.550;2023-04-03T09:41:07;10.30;85.00
74513;DHT22;62992;52.052;8.550;2023-04-03T09:43:57;11.40;87.50
74513;DHT22;62992;52.052;8.550;2023-04-03T09:46:41;12.20;83.40
74513;DHT22;62992;52.052;8.550;2023-04-03T09:49:26;12.80;81.20
74513;DHT22;62992;52.052;8.550;2023-04-03T09:52:25;12.00;81.90
74513;DHT22;62992;52.052;8.550;2023-04-03T09:58:02;11.70;82.20
74513;DHT22;62992;52.052;8.550;2023-04-03T10:00:57;11.90;82.50
74513;DHT22;62992;52.052;8.550;2023-04-03T10:03:42;9.80;85.30
74513;DHT22;62992;52.052;8.550;2023-04-03T10:06:32;8.80;88.40
74513;DHT22;62992;52.052;8.550;2023-04-03T10:09:27;10.70;84.90
74513;DHT22;62992;52.052;8.550;2023-04-03T10:12:12;10.50;82.60
74513;DHT22;62992;52.052;8.550;2023-04-03T10:14:59;11.40;84.10
74513;DHT22;62992;52.052;8.550;2023-04-03T10:17:57;10.70;80.90
74513;DHT22;62992;52.052;8.550;2023-04-03T10:20:47;11.10;81.30
74513;DHT22;62992;52.052;8.550;2023-04-03T10:23:42;11.40;81.50
74513;DHT22;62992;52.052;8.550;2023-04-03T10:36:07;10.70;81.70
74513;DHT22;62992;52.052;8.550;2023-04-03T10:42:13;10.00;83.70
74513;DHT22;62992;52.052;8.550;2023-04-03T10:48:23;9.40;87.20
74513;DHT22;62992;52.052;8.550;2023-04-03T10:51:19;8.70;88.50
74513;DHT22;62992;52.052;8.550;2023-04-03T10:54:32;9.10;86.90
74513;DHT22;62992;52.052;8.550;2023-04-03T10:57:18;7.90;89.90
74513;DHT22;62992;52.052;8.550;2023-04-03T11:00:19;8.40;90.20
74513;DHT22;62992;52.052;8.550;2023-04-03T11:03:31;9.10;86.00
74513;DHT22;62992;52.052;8.550;2023-04-03T11:06:19;9.00;89.50
74513;DHT22;62992;52.052;8.550;2023-04-03T11:09:26;10.00;86.80
74513;DHT22;62992;52.052;8.550;2023-04-03T11:15:10;8.30;90.30
74513;DHT22;62992;52.052;8.550;2023-04-03T11:18:00;8.10;90.30
74513;DHT22;62992;52.052;8.550;2023-04-03T11:21:04;9.50;90.10
74513;DHT22;62992;52.052;8.550;2023-04-03T11:23:51;8.20;90.90
74513;DHT22;62992;52.052;8.550;2023-04-03T11:26:40;7.50;92.10
74513;DHT22;62992;52.052;8.550;2023-04-03T11:29:32;7.10;92.60
74513;DHT22;62992;52.052;8.550;2023-04-03T11:35:11;9.30;92.30
74513;DHT22;62992;52.052;8.550;2023-04-03T11:37:56;9.70;88.80
74513;DHT22;62992;52.052;8.550;2023-04-03T11:40:41;8.90;90.40
74513;DHT22;62992;52.052;8.550;2023-04-03T11:43:29;8.30;91.20
74513;DHT22;62992;52.052;8.550;2023-04-03T11:46:14;7.90;91.30
74513;DHT22;62992;52.052;8.550;2023-04-03T11:49:00;7.70;92.60
74513;DHT22;62992;52.052;8.550;2023-04-03T11:51:44;8.70;91.80
74513;DHT22;62992;52.052;8.550;2023-04-03T11:57:44;7.80;90.90
74513;DHT22;62992;52.052;8.550;2023-04-03T12:12:33;7.80;91.50
74513;DHT22;62992;52.052;8.550;2023-04-03T12:15:25;7.60;92.20
74513;DHT22;62992;52.052;8.550;2023-04-03T12:21:21;7.50;92.00
74513;DHT22;62992;52.052;8.550;2023-04-03T12:27:09;7.60;92.40
74513;DHT22;62992;52.052;8.550;2023-04-03T12:33:01;7.30;92.30
74513;DHT22;62992;52.052;8.550;2023-04-03T12:36:21;7.30;92.50
74513;DHT22;62992;52.052;8.550;2023-04-03T12:45:23;7.10;92.70
74513;DHT22;62992;52.052;8.550;2023-04-03T12:48:15;7.30;92.10
74513;DHT22;62992;52.052;8.550;2023-04-03T12:51:00;7.10;92.10
74513;DHT22;62992;52.052;8.550;2023-04-03T12:53:46;7.20;92.70
74513;DHT22;62992;52.052;8.550;2023-04-03T12:56:32;7.10;92.30
74513;DHT22;62992;52.052;8.550;2023-04-03T13:02:08;7.00;92.40
74513;DHT22;62992;52.052;8.550;2023-04-03T13:05:06;7.30;92.20
74513;DHT22;62992;52.052;8.550;2023-04-03T13:08:01;7.80;92.30
74513;DHT22;62992;52.052;8.550;2023-04-03T13:11:01;8.20;91.60
74513;DHT22;62992;52.052;8.550;2023-04-03T13:14:01;8.10;91.70
74513;DHT22;62992;52.052;8.550;2023-04-03T13:16:59;8.00;91.70
74513;DHT22;62992;52.052;8.550;2023-04-03T13:19:45;7.90;90.70
74513;DHT22;62992;52.052;8.550;2023-04-03T13:22:38;7.80;91.20
74513;DHT22;62992;52.052;8.550;2023-04-03T13:25:30;7.80;91.20
74513;DHT22;62992;52.052;8.550;2023-04-03T13:28:20;7.90;91.60
74513;DHT22;62992;52.052;8.550;2023-04-03T13:34:02;8.00;90.80
74513;DHT22;62992;52.052;8.550;2023-04-03T13:39:39;7.70;90.60
74513;DHT22;62992;52.052;8.550;2023-04-03T13:42:26;8.10;90.80
74513;DHT22;62992;52.052;8.550;2023-04-03T13:45:23;8.40;90.70
74513;DHT22;62992;52.052;8.550;2023-04-03T13:48:16;8.50;90.20
74513;DHT22;62992;52.052;8.550;2023-04-03T13:54:00;7.90;90.60
74513;DHT22;62992;52.052;8.550;2023-04-03T13:56:45;7.80;90.70
74513;DHT22;62992;52.052;8.550;2023-04-03T13:59:32;8.00;90.30
74513;DHT22;62992;52.052;8.550;2023-04-03T14:05:03;8.30;89.10
74513;DHT22;62992;52.052;8.550;2023-04-03T14:07:48;8.30;88.80
74513;DHT22;62992;52.052;8.550;2023-04-03T14:10:32;8.20;90.50
74513;DHT22;62992;52.052;8.550;2023-04-03T14:13:18;8.10;90.30
74513;DHT22;62992;52.052;8.550;2023-04-03T14:16:03;7.90;91.20
74513;DHT22;62992;52.052;8.550;2023-04-03T14:18:49;7.70;91.10
74513;DHT22;62992;52.052;8.550;2023-04-03T14:21:33;7.50;91.10
74513;DHT22;62992;52.052;8.550;2023-04-03T14:24:17;7.60;90.80
74513;DHT22;62992;52.052;8.550;2023-04-03T14:27:17;8.00;90.60
74513;DHT22;62992;52.052;8.550;2023-04-03T14:30:03;8.00;90.10
74513;DHT22;62992;52.052;8.550;2023-04-03T14:32:48;8.10;91.50
74513;DHT22;62992;52.052;8.550;2023-04-03T14:35:33;7.80;90.00
74513;DHT22;62992;52.052;8.550;2023-04-03T14:38:24;7.70;91.10
74513;DHT22;62992;52.052;8.550;2023-04-03T14:41:12;7.50;91.30
74513;DHT22;62992;52.052;8.550;2023-04-03T14:43:57;7.60;91.90
74513;DHT22;62992;52.052;8.550;2023-04-03T14:46:43;7.80;91.20
74513;DHT22;62992;52.052;8.550;2023-04-03T14:49:27;8.00;90.80
74513;DHT22;62992;52.052;8.550;2023-04-03T14:52:29;7.80;90.60
74513;DHT22;62992;52.052;8.550;2023-04-03T14:55:19;7.50;90.70
74513;DHT22;62992;52.052;8.550;2023-04-03T14:58:03;7.60;91.70
74513;DHT22;62992;52.052;8.550;2023-04-03T15:00:47;7.70;91.00
74513;DHT22;62992;52.052;8.550;2023-04-03T15:03:31;7.70;91.20
74513;DHT22;62992;52.052;8.550;2023-04-03T15:06:16;7.80;90.50
74513;DHT22;62992;52.052;8.550;2023-04-03T15:09:00;7.60;90.80
74513;DHT22;62992;52.052;8.550;2023-04-03T15:11:44;7.70;90.90
74513;DHT22;62992;52.052;8.550;2023-04-03T15:14:28;7.80;90.60
74513;DHT22;62992;52.052;8.550;2023-04-03T15:17:17;7.90;90.90
74513;DHT22;62992;52.052;8.550;2023-04-03T15:20:09;7.80;90.10
74513;DHT22;62992;52.052;8.550;2023-04-03T15:22:55;7.70;90.60
74513;DHT22;62992;52.052;8.550;2023-04-03T15:25:40;7.30;91.00
74513;DHT22;62992;52.052;8.550;2023-04-03T15:28:34;7.20;91.90
74513;DHT22;62992;52.052;8.550;2023-04-03T15:31:19;7.20;92.10
74513;DHT22;62992;52.052;8.550;2023-04-03T15:34:03;7.00;92.10
74513;DHT22;62992;52.052;8.550;2023-04-03T15:36:47;6.90;92.40
74513;DHT22;62992;52.052;8.550;2023-04-03T15:39:31;7.10;91.70
74513;DHT22;62992;52.052;8.550;2023-04-03T15:42:15;7.30;91.70
74513;DHT22;62992;52.052;8.550;2023-04-03T15:44:59;7.50;91.80
74513;DHT22;62992;52.052;8.550;2023-04-03T15:47:44;7.60;91.80
74513;DHT22;62992;52.052;8.550;2023-04-03T15:50:29;7.60;90.90
74513;DHT22;62992;52.052;8.550;2023-04-03T15:53:13;7.70;90.90
74513;DHT22;62992;52.052;8.550;2023-04-03T15:55:56;7.80;90.80
74513;DHT22;62992;52.052;8.550;2023-04-03T15:58:40;7.80;91.30
74513;DHT22;62992;52.052;8.550;2023-04-03T16:01:25;8.00;91.80
74513;DHT22;62992;52.052;8.550;2023-04-03T16:04:09;7.90;91.30
74513;DHT22;62992;52.052;8.550;2023-04-03T16:06:54;7.60;91.70
74513;DHT22;62992;52.052;8.550;2023-04-03T16:09:38;7.50;91.90
74513;DHT22;62992;52.052;8.550;2023-04-03T16:12:22;7.20;92.50
74513;DHT22;62992;52.052;8.550;2023-04-03T16:15:07;7.00;91.30
74513;DHT22;62992;52.052;8.550;2023-04-03T16:17:52;6.90;92.10
74513;DHT22;62992;52.052;8.550;2023-04-03T16:20:37;6.90;92.60
74513;DHT22;62992;52.052;8.550;2023-04-03T16:23:22;7.00;92.50
74513;DHT22;62992;52.052;8.550;2023-04-03T16:26:05;7.00;92.30
74513;DHT22;62992;52.052;8.550;2023-04-03T16:28:49;6.90;91.80
74513;DHT22;62992;52.052;8.550;2023-04-03T16:31:33;6.90;91.90
74513;DHT22;62992;52.052;8.550;2023-04-03T16:34:18;7.00;91.90
74513;DHT22;62992;52.052;8.550;2023-04-03T16:37:02;7.10;93.20
74513;DHT22;62992;52.052;8.550;2023-04-03T16:39:46;7.20;91.90
74513;DHT22;62992;52.052;8.550;2023-04-03T16:42:30;7.20;92.00
74513;DHT22;62992;52.052;8.550;2023-04-03T16:45:15;7.20;91.50
74513;DHT22;62992;52.052;8.550;2023-04-03T16:47:59;7.00;90.70
74513;DHT22;62992;52.052;8.550;2023-04-03T16:50:47;6.90;91.10
74513;DHT22;62992;52.052;8.550;2023-04-03T16:53:32;6.80;91.80
74513;DHT22;62992;52.052;8.550;2023-04-03T16:56:16;6.80;91.70
74513;DHT22;62992;52.052;8.550;2023-04-03T16:59:00;6.80;91.80
74513;DHT22;62992;52.052;8.550;2023-04-03T17:01:45;6.70;92.20
74513;DHT22;62992;52.052;8.550;2023-04-03T17:04:29;6.60;92.30
74513;DHT22;62992;52.052;8.550;2023-04-03T17:07:13;6.60;93.70
74513;DHT22;62992;52.052;8.550;2023-04-03T17:09:58;6.50;93.00
74513;DHT22;62992;52.052;8.550;2023-04-03T17:12:42;6.50;93.20
74513;DHT22;62992;52.052;8.550;2023-04-03T17:15:26;6.40;93.50
74513;DHT22;62992;52.052;8.550;2023-04-03T17:18:10;6.50;93.40
74513;DHT22;62992;52.052;8.550;2023-04-03T17:20:55;6.50;93.60
74513;DHT22;62992;52.052;8.550;2023-04-03T17:23:42;6.50;93.40
74513;DHT22;62992;52.052;8.550;2023-04-03T17:26:26;6.40;93.40
74513;DHT22;62992;52.052;8.550;2023-04-03T17:29:10;6.40;93.00
74513;DHT22;62992;52.052;8.550;2023-04-03T17:31:54;6.40;92.70
74513;DHT22;62992;52.052;8.550;2023-04-03T17:34:38;6.30;92.90
74513;DHT22;62992;52.052;8.550;2023-04-03T17:37:23;6.20;93.40
74513;DHT22;62992;52.052;8.550;2023-04-03T17:40:07;6.20;93.40
74513;DHT22;62992;52.052;8.550;2023-04-03T17:42:52;6.00;93.50
74513;DHT22;62992;52.052;8.550;2023-04-03T17:45:37;6.00;93.70
74513;DHT22;62992;52.052;8.550;2023-04-03T17:48:21;6.00;93.70
74513;DHT22;62992;52.052;8.550;2023-04-03T17:51:09;5.90;94.20
74513;DHT22;62992;52.052;8.550;2023-04-03T17:53:54;5.90;94.20
74513;DHT22;62992;52.052;8.550;2023-04-03T17:56:38;5.80;94.80
74513;DHT22;62992;52.052;8.550;2023-04-03T17:59:22;5.70;94.30
74513;DHT22;62992;52.052;8.550;2023-04-03T18:02:06;5.70;95.10
74513;DHT22;62992;52.052;8.550;2023-04-03T18:04:51;5.60;95.70
74513;DHT22;62992;52.052;8.550;2023-04-03T18:07:36;5.40;97.00
74513;DHT22;62992;52.052;8.550;2023-04-03T18:10:21;5.50;95.80
74513;DHT22;62992;52.052;8.550;2023-04-03T18:13:06;5.30;98.30
74513;DHT22;62992;52.052;8.550;2023-04-03T18:15:51;5.20;98.00
74513;DHT22;62992;52.052;8.550;2023-04-03T18:18:35;5.20;97.60
74513;DHT22;62992;52.052;8.550;2023-04-03T18:21:19;5.10;99.10
74513;DHT22;62992;52.052;8.550;2023-04-03T18:24:05;5.10;99.10
74513;DHT22;62992;52.052;8.550;2023-04-03T18:26:54;5.00;99.90
74513;DHT22;62992;52.052;8.550;2023-04-03T18:29:44;4.80;99.90
74513;DHT22;62992;52.052;8.550;2023-04-03T18:32:29;4.80;98.60
74513;DHT22;62992;52.052;8.550;2023-04-03T18:35:13;5.00;96.90
74513;DHT22;62992;52.052;8.550;2023-04-03T18:37:57;5.00;97.70
74513;DHT22;62992;52.052;8.550;2023-04-03T18:40:41;5.00;97.00
74513;DHT22;62992;52.052;8.550;2023-04-03T18:43:27;5.00;97.60
74513;DHT22;62992;52.052;8.550;2023-04-03T18:46:11;4.90;99.50
74513;DHT22;62992;52.052;8.550;2023-04-03T18:48:56;4.70;99.70
74513;DHT22;62992;52.052;8.550;2023-04-03T18:51:40;4.80;98.30
74513;DHT22;62992;52.052;8.550;2023-04-03T18:54:25;4.60;99.90
74513;DHT22;62992;52.052;8.550;2023-04-03T18:57:09;4.60;99.90
74513;DHT22;62992;52.052;8.550;2023-04-03T18:59:52;4.70;99.00
74513;DHT22;62992;52.052;8.550;2023-04-03T19:02:37;4.70;98.00